LTAC/ESB METAR and TAF weather

Enter ICAO airport designator
Station Type Date Time Source
LTAC METAR 2020/07/13 14:50 UTC NOAA

LTAC 131450Z 36014KT 9999 SCT040 27/06 Q1010 NOSIG


Station Type Date Time Source
LTAC Decoded METAR 2020/07/13 14:50 UTC NOAA

Ankara / Esenboga, Turkey (LTAC) 40-07N 032-59E 949M
Jul 13, 2020 - 10:50 AM EDT / 2020.07.13 1450 UTC
Wind: from the N (360 degrees) at 16 MPH (14 KT):0
Visibility: greater than 7 mile(s):0
Sky conditions: partly cloudy
Temperature: 80 F (27 C)
Dew Point: 42 F (6 C)
Relative Humidity: 26%
Pressure (altimeter): 29.83 in. Hg (1010 hPa)
ob: LTAC 131450Z 36014KT 9999 SCT040 27/06 Q1010 NOSIG
cycle: 15

Station Type Date Time Source
LTAC TAF 2020/07/13 12:03 UTC NOAA

TAF TAF LTAC 131040Z 1312/1412 VRB02KT 9999 SCT040
TEMPO 1313/1317 02012KT
BECMG 1317/1319 CAVOK
BECMG 1406/1408 FEW040

Example: see airport list